CheckWX is a tool to help pilots better visualize weather data.  It is not intended as a substitute for an official pre-flight weather briefing.

22:45:22 UTC

KSBN TAF
South Bend International Airport
South Bend, Indiana, USA
KSBN 051720Z 0518/0618 22007KT P6SM SCT200 FM052300 19007KT P6SM BKN120 FM061000 31010KT P6SM BKN015

Dec-5@
18:00 UTC

Dec-5 @ 18:00 UTC

Dec-5@
23:00 UTC

Dec-5 @ 23:00 UTC

KSBN 051720Z 0518/0618 22007KT P6SM SCT200
Wind
  • 220° at 7 KTS
Cloud Levels
  • Scattered at 20,000' AGL

Dec-5@
23:00 UTC

Dec-5 @ 23:00 UTC

Dec-6@
10:00 UTC

Dec-6 @ 10:00 UTC

FM052300 19007KT P6SM BKN120

From

From Standard forecast or significant change

Wind
  • 190° at 7 KTS
Cloud Levels
  • Broken at 12,000' AGL

Dec-6@
10:00 UTC

Dec-6 @ 10:00 UTC

Dec-6@
18:00 UTC

Dec-6 @ 18:00 UTC

FM061000 31010KT P6SM BKN015

From

From Standard forecast or significant change

Wind
  • 310° at 10 KTS
Cloud Levels
  • Broken at 1,500' AGL